Time;durP1;ratioP1;P1;durP2;ratioP2;P2;SDS_P1;SDS_P2;PMS_P1;PMS_P2;Temp;Humidity;BMP_temperature;BMP_pressure;BME280_temperature;BME280_humidity;BME280_pressure;Samples;Min_cycle;Max_cycle;Signal;HPM_P1;HPM_P2
2023/05/20 00:00:50;;;;;;;6.03;4.03;;;;;;;23.68;45.17;100058.94;4258690;33;33663;-64
2023/05/20 00:03:18;;;;;;;5.55;3.83;;;;;;;23.67;45.20;100057.28;4259901;33;33886;-64
2023/05/20 00:05:46;;;;;;;6.28;4.30;;;;;;;23.67;45.20;100058.09;4259925;33;34731;-64
2023/05/20 00:08:14;;;;;;;6.53;4.00;;;;;;;23.68;45.20;100062.50;4272938;33;34893;-64
2023/05/20 00:10:42;;;;;;;5.32;3.85;;;;;;;23.67;45.19;100062.72;4274136;33;34051;-64
2023/05/20 00:13:09;;;;;;;5.80;4.10;;;;;;;23.65;45.20;100062.97;4274205;33;34371;-64
2023/05/20 00:15:37;;;;;;;6.85;4.43;;;;;;;23.66;45.19;100069.25;4261160;33;34472;-64
2023/05/20 00:18:05;;;;;;;8.02;4.55;;;;;;;23.65;45.17;100060.25;4249679;33;34009;-64
2023/05/20 00:20:32;;;;;;;7.15;4.12;;;;;;;23.65;45.17;100065.69;4274097;33;33625;-64
2023/05/20 00:23:00;;;;;;;7.30;4.25;;;;;;;23.64;45.15;100069.47;4274407;33;33332;-64
2023/05/20 00:25:29;;;;;;;9.15;4.53;;;;;;;23.65;45.14;100064.84;4274246;33;33831;-64
2023/05/20 00:27:57;;;;;;;5.53;3.80;;;;;;;23.64;45.13;100063.16;4274049;33;34010;-64
2023/05/20 00:30:24;;;;;;;7.00;4.43;;;;;;;23.64;45.12;100058.56;4274186;33;33795;-64
2023/05/20 00:32:52;;;;;;;6.40;4.10;;;;;;;23.62;45.15;100054.34;4273764;33;33486;-64
2023/05/20 00:35:20;;;;;;;7.45;4.37;;;;;;;23.62;45.19;100048.91;4273841;33;34968;-64
2023/05/20 00:37:47;;;;;;;6.22;3.97;;;;;;;23.62;45.14;100052.47;4273923;33;34806;-64
2023/05/20 00:40:15;;;;;;;9.82;4.45;;;;;;;23.62;45.12;100060.63;4273635;33;34725;-64
2023/05/20 00:42:43;;;;;;;6.62;4.55;;;;;;;23.62;45.09;100060.63;4260964;33;33353;-64
2023/05/20 00:45:10;;;;;;;6.62;4.20;;;;;;;23.62;45.07;100057.09;4273677;33;34729;-64
2023/05/20 00:47:39;;;;;;;6.60;4.18;;;;;;;23.61;45.07;100056.25;4273836;33;34765;-64
2023/05/20 00:50:08;;;;;;;5.25;3.75;;;;;;;23.61;45.07;100058.97;4273788;33;34820;-64
2023/05/20 00:52:36;;;;;;;5.50;4.00;;;;;;;23.61;45.06;100058.16;4229919;33;33831;-64
2023/05/20 00:55:04;;;;;;;7.28;4.50;;;;;;;23.62;45.02;100054.34;4246552;33;33896;-64
2023/05/20 00:57:32;;;;;;;6.45;4.25;;;;;;;23.61;45.01;100056.25;4259555;33;33768;-64
2023/05/20 00:59:59;;;;;;;6.87;4.20;;;;;;;23.61;45.01;100058.97;4260969;33;34088;-64
2023/05/20 01:02:27;;;;;;;6.85;3.92;;;;;;;23.61;45.01;100055.41;4259759;33;33470;-64
2023/05/20 01:04:55;;;;;;;6.28;4.68;;;;;;;23.61;45.01;100058.16;4259906;33;34091;-64
2023/05/20 01:07:24;;;;;;;6.85;3.72;;;;;;;23.60;45.00;100057.31;4269131;33;35335;-64
2023/05/20 01:09:53;;;;;;;6.30;3.87;;;;;;;23.60;45.00;100056.47;4275127;33;33754;-64
2023/05/20 01:12:29;;;;;;;6.75;3.92;;;;;;;23.61;44.96;100064.41;4275321;33;34094;-64
2023/05/20 01:15:00;;;;;;;6.30;4.00;;;;;;;23.61;44.96;100064.41;4251066;33;34650;-64
2023/05/20 01:17:30;;;;;;;6.75;4.00;;;;;;;23.59;44.96;100065.69;4275311;33;33961;-64
2023/05/20 01:19:58;;;;;;;7.37;4.37;;;;;;;23.58;44.95;100072.19;4275182;33;34855;-64
2023/05/20 01:22:26;;;;;;;6.43;4.05;;;;;;;23.57;44.97;100071.37;4275074;33;34391;-64
2023/05/20 01:24:54;;;;;;;5.93;4.12;;;;;;;23.57;44.97;100076.81;4275543;33;34023;-64
2023/05/20 01:27:22;;;;;;;8.27;4.25;;;;;;;23.57;44.97;100076.81;4275227;33;33865;-64
2023/05/20 01:29:50;;;;;;;5.80;3.95;;;;;;;23.57;44.95;100075.97;4275131;33;33973;-64
2023/05/20 01:32:26;;;;;;;6.82;3.92;;;;;;;23.56;44.95;100074.31;4275277;33;32925;-64
2023/05/20 01:34:54;;;;;;;8.40;4.30;;;;;;;23.57;44.93;100076.81;4275205;33;33920;-64
2023/05/20 01:37:22;;;;;;;6.32;3.87;;;;;;;23.57;44.89;100084.16;4262350;33;33774;-64
2023/05/20 01:39:50;;;;;;;7.15;3.83;;;;;;;23.55;44.91;100076.22;4275070;33;34713;-64
2023/05/20 01:42:17;;;;;;;7.28;4.45;;;;;;;23.56;44.91;100077.03;4275079;33;32989;-64
2023/05/20 01:44:45;;;;;;;5.50;3.97;;;;;;;23.55;44.88;100076.22;4250553;33;33837;-64
2023/05/20 01:47:12;;;;;;;6.68;4.07;;;;;;;23.55;44.88;100073.50;4275222;33;33897;-64
2023/05/20 01:49:41;;;;;;;5.70;3.80;;;;;;;23.54;44.87;100077.25;4275285;33;33388;-64
2023/05/20 01:52:08;;;;;;;6.68;3.87;;;;;;;23.55;44.87;100087.09;4275339;33;34074;-64
2023/05/20 01:54:36;;;;;;;5.37;3.72;;;;;;;23.54;44.84;100070.97;4262201;33;33874;-64
2023/05/20 01:57:04;;;;;;;5.78;4.00;;;;;;;23.55;44.83;100078.06;4274827;33;33667;-64
2023/05/20 01:59:32;;;;;;;6.28;4.03;;;;;;;23.55;44.86;100069.91;4275319;33;34053;-64
2023/05/20 02:01:59;;;;;;;7.45;3.90;;;;;;;23.53;44.90;100072.84;4274979;33;33511;-64
2023/05/20 02:04:27;;;;;;;5.45;4.12;;;;;;;23.52;44.93;100068.47;4274876;33;34921;-64
2023/05/20 02:06:55;;;;;;;7.03;4.43;;;;;;;23.53;44.92;100070.13;4269627;33;34851;-64
2023/05/20 02:09:22;;;;;;;7.60;3.92;;;;;;;23.54;44.93;100076.41;4260281;33;33637;-64
2023/05/20 02:11:52;;;;;;;6.93;4.70;;;;;;;23.53;44.93;100074.75;4260967;33;33522;-64
2023/05/20 02:14:19;;;;;;;5.55;3.90;;;;;;;23.54;44.93;100066.34;4260933;33;33642;-64
2023/05/20 02:16:47;;;;;;;7.22;3.92;;;;;;;23.52;44.96;100068.47;4260988;33;33441;-64
2023/05/20 02:19:22;;;;;;;6.95;3.83;;;;;;;23.52;44.99;100067.63;4260828;33;33763;-64
2023/05/20 02:21:50;;;;;;;6.50;4.25;;;;;;;23.53;45.05;100066.59;4260725;33;33110;-64
2023/05/20 02:24:19;;;;;;;7.10;3.80;;;;;;;23.54;44.98;100070.97;4260738;33;33892;-64
2023/05/20 02:26:49;;;;;;;8.63;4.43;;;;;;;23.54;44.92;100070.97;4260718;33;33973;-64
2023/05/20 02:29:18;;;;;;;7.97;4.10;;;;;;;23.55;44.91;100072.62;4260726;33;33514;-63
2023/05/20 02:31:47;;;;;;;6.15;3.70;;;;;;;23.54;44.97;100071.78;4260660;33;34159;-64
2023/05/20 02:34:16;;;;;;;5.75;4.15;;;;;;;23.55;44.94;100075.34;4260569;33;34391;-64
2023/05/20 02:36:44;;;;;;;7.55;3.85;;;;;;;23.54;44.98;100062.78;4271357;33;33841;-64
2023/05/20 02:39:12;;;;;;;7.15;4.00;;;;;;;23.56;44.93;100068.88;4260558;33;33855;-64
2023/05/20 02:41:39;;;;;;;8.07;4.78;;;;;;;23.54;44.91;100063.63;4260571;33;33120;-63
2023/05/20 02:44:09;;;;;;;8.73;4.53;;;;;;;23.54;44.95;100062.78;4260629;33;33979;-64
2023/05/20 02:46:36;;;;;;;6.53;4.25;;;;;;;23.55;44.94;100065.31;4260321;33;33562;-64
2023/05/20 02:49:04;;;;;;;7.18;4.75;;;;;;;23.55;44.99;100068.03;4260598;33;33735;-64
2023/05/20 02:51:32;;;;;;;8.25;4.62;;;;;;;23.54;44.99;100058.19;4260528;33;33564;-64
2023/05/20 02:54:00;;;;;;;6.72;4.40;;;;;;;23.55;45.00;100056.28;4260364;33;33689;-64
2023/05/20 02:56:27;;;;;;;6.80;4.47;;;;;;;23.55;45.01;100057.16;4260376;33;34781;-64
2023/05/20 02:58:55;;;;;;;6.43;4.68;;;;;;;23.54;45.03;100058.19;4260519;33;34078;-64
2023/05/20 03:01:23;;;;;;;8.05;4.60;;;;;;;23.54;45.03;100058.19;4260423;33;34083;-64
2023/05/20 03:03:51;;;;;;;5.82;4.28;;;;;;;23.53;45.07;100061.97;4260610;33;34957;-64
2023/05/20 03:06:19;;;;;;;5.15;3.85;;;;;;;23.54;45.04;100068.25;4262300;33;33817;-64
2023/05/20 03:08:46;;;;;;;6.75;4.55;;;;;;;23.55;44.99;100069.91;4261534;33;34598;-64
2023/05/20 03:11:14;;;;;;;7.72;4.80;;;;;;;23.54;44.98;100069.06;4274896;33;33680;-64
2023/05/20 03:13:42;;;;;;;5.70;4.18;;;;;;;23.54;44.98;100074.53;4274652;33;34083;-64
2023/05/20 03:16:11;;;;;;;7.28;4.75;;;;;;;23.53;44.97;100067.41;4261395;33;33169;-64
2023/05/20 03:18:39;;;;;;;7.07;4.50;;;;;;;23.54;44.95;100076.41;4274786;33;34709;-64
2023/05/20 03:21:07;;;;;;;6.55;4.22;;;;;;;23.54;44.95;100076.41;4274459;33;33571;-64
2023/05/20 03:23:35;;;;;;;7.10;4.87;;;;;;;23.54;44.97;100082.69;4274610;33;34676;-64
2023/05/20 03:26:02;;;;;;;6.82;4.57;;;;;;;23.54;44.96;100081.84;4274848;33;33645;-64
2023/05/20 03:28:30;;;;;;;6.95;4.43;;;;;;;23.52;45.00;100078.53;4274489;33;34955;-64
2023/05/20 03:30:58;;;;;;;7.37;4.82;;;;;;;23.53;44.99;100083.75;4274583;33;32787;-64
2023/05/20 03:33:25;;;;;;;6.37;4.53;;;;;;;23.52;44.97;100084.81;4274614;33;34456;-64
2023/05/20 03:35:53;;;;;;;9.45;5.00;;;;;;;23.53;45.01;100096.53;4274744;33;34780;-64
2023/05/20 03:38:21;;;;;;;7.45;4.50;;;;;;;23.53;44.97;100085.66;4274605;33;34604;-64
2023/05/20 03:40:49;;;;;;;7.10;4.57;;;;;;;23.51;44.97;100085.88;4274601;33;33111;-64
2023/05/20 03:43:17;;;;;;;6.30;4.53;;;;;;;23.51;44.96;100094.03;4274677;33;33896;-64
2023/05/20 03:45:44;;;;;;;8.43;4.37;;;;;;;23.52;44.97;100089.44;4274219;33;34792;-64
2023/05/20 03:48:13;;;;;;;7.37;5.00;;;;;;;23.52;44.97;100092.16;4274762;33;34526;-64
2023/05/20 03:50:41;;;;;;;6.60;4.40;;;;;;;23.52;44.95;100083.97;4274684;33;33160;-64
2023/05/20 03:53:10;;;;;;;6.68;4.60;;;;;;;23.50;44.99;100094.25;4274480;33;34475;-64
2023/05/20 03:55:38;;;;;;;7.85;4.87;;;;;;;23.51;44.97;100088.59;4274518;33;33704;-64
2023/05/20 03:58:06;;;;;;;9.45;4.80;;;;;;;23.51;44.96;100095.94;4274241;33;34532;-64
2023/05/20 04:00:34;;;;;;;6.93;4.75;;;;;;;23.50;44.94;100089.66;4261776;33;33247;-63
2023/05/20 04:03:02;;;;;;;7.50;4.72;;;;;;;23.50;44.95;100092.38;4274247;33;33541;-64
2023/05/20 04:05:30;;;;;;;7.37;4.15;;;;;;;23.51;45.01;100088.59;4274039;33;33889;-64
2023/05/20 04:07:59;;;;;;;6.43;4.30;;;;;;;23.50;44.96;100097.84;4262837;33;33588;-64
2023/05/20 04:10:27;;;;;;;8.30;4.85;;;;;;;23.51;44.92;100098.66;4260216;33;33998;-63
2023/05/20 04:12:54;;;;;;;6.35;4.35;;;;;;;23.51;44.94;100113.12;4259832;33;34670;-64
2023/05/20 04:15:25;;;;;;;10.18;4.70;;;;;;;23.52;44.95;100108.50;4259847;33;35034;-66
2023/05/20 04:17:53;;;;;;;5.93;4.10;;;;;;;23.51;44.91;100104.94;4259997;33;33989;-63
2023/05/20 04:20:21;;;;;;;6.85;4.28;;;;;;;23.52;45.02;100114.78;4258414;33;34584;-63
2023/05/20 04:22:49;;;;;;;7.47;4.40;;;;;;;23.52;45.06;100119.38;4267641;33;33587;-63
2023/05/20 04:25:17;;;;;;;7.28;4.35;;;;;;;23.52;45.06;100112.06;4259162;33;34019;-63
2023/05/20 04:27:45;;;;;;;6.37;4.50;;;;;;;23.54;45.10;100111.81;4259477;33;34002;-63
2023/05/20 04:30:13;;;;;;;6.53;4.05;;;;;;;23.54;45.08;100120.81;4258671;33;33563;-64
2023/05/20 04:32:41;;;;;;;6.95;4.40;;;;;;;23.55;45.03;100121.66;4258672;33;33644;-63
2023/05/20 04:35:10;;;;;;;7.53;4.18;;;;;;;23.56;45.07;100120.62;4259053;33;34005;-64
2023/05/20 04:37:38;;;;;;;;;;;;;;;23.57;45.10;100123.13;4259135;33;34602;-64
2023/05/20 04:40:08;;;;;;;6.85;4.20;;;;;;;23.66;44.88;100124.56;4259092;33;33317;-64
2023/05/20 04:42:36;;;;;;;10.02;4.53;;;;;;;23.59;45.05;100131.06;4258551;33;34594;-64
2023/05/20 04:45:05;;;;;;;6.53;4.40;;;;;;;23.57;45.11;100128.56;4258699;33;33777;-64
2023/05/20 04:47:37;;;;;;;6.82;4.20;;;;;;;23.57;45.14;100128.56;4258794;33;34694;-64
2023/05/20 04:50:07;;;;;;;8.60;4.43;;;;;;;23.57;45.14;100131.28;4258981;33;33950;-63
2023/05/20 04:52:38;;;;;;;6.95;3.95;;;;;;;23.59;45.12;100128.34;4245996;33;34863;-64
2023/05/20 04:55:09;;;;;;;7.68;4.10;;;;;;;23.59;45.12;100134.63;4258390;33;34547;-64
2023/05/20 04:57:43;;;;;;;4.80;3.80;;;;;;;23.57;45.17;100134.00;4259370;33;34166;-63
2023/05/20 05:00:12;;;;;;;5.90;4.00;;;;;;;23.59;45.17;100131.06;4235660;33;33363;-63
2023/05/20 05:02:40;;;;;;;6.85;3.78;;;;;;;23.59;45.17;100122.88;4257639;33;34726;-63
2023/05/20 05:05:08;;;;;;;6.45;4.50;;;;;;;23.58;45.17;100122.06;4258890;33;33217;-63
2023/05/20 05:07:37;;;;;;;6.95;4.40;;;;;;;23.59;45.20;100115.53;4268016;33;34966;-62
2023/05/20 05:10:05;;;;;;;7.12;4.50;;;;;;;23.59;45.19;100122.88;4272925;33;33667;-63
2023/05/20 05:12:33;;;;;;;6.15;3.90;;;;;;;23.59;45.20;100121.00;4251458;33;34016;-62
2023/05/20 05:15:01;;;;;;;5.90;3.83;;;;;;;23.60;45.22;100111.78;4252599;33;33888;-62
2023/05/20 05:17:30;;;;;;;7.23;4.00;;;;;;;23.61;45.22;100123.53;4258755;33;33419;-63
2023/05/20 05:19:58;;;;;;;5.43;3.55;;;;;;;23.62;45.21;100123.28;4258596;33;34243;-62
2023/05/20 05:22:26;;;;;;;5.80;3.83;;;;;;;23.61;45.26;100121.63;4257599;33;34763;-63
2023/05/20 05:24:54;;;;;;;8.10;4.18;;;;;;;23.62;45.36;100128.75;4259197;33;34693;-62
2023/05/20 05:27:22;;;;;;;5.85;3.65;;;;;;;23.63;45.47;100126.84;4259141;33;34613;-67
2023/05/20 05:29:50;;;;;;;5.85;3.65;;;;;;;23.62;45.47;100131.47;4258998;33;33220;-67
2023/05/20 05:32:18;;;;;;;5.68;3.45;;;;;;;23.64;45.57;100139.44;4259146;33;34632;-67
2023/05/20 05:34:45;;;;;;;6.75;3.67;;;;;;;23.64;45.58;100139.44;4258994;33;33555;-67
2023/05/20 05:37:13;;;;;;;7.65;3.37;;;;;;;23.64;45.62;100129.41;4257013;33;34619;-67
2023/05/20 05:39:41;;;;;;;5.07;3.50;;;;;;;23.63;45.81;100130.41;4258073;33;33267;-67
2023/05/20 05:42:08;;;;;;;8.23;3.22;;;;;;;23.65;45.95;100132.97;4259069;33;34615;-67
2023/05/20 05:44:37;;;;;;;5.87;3.72;;;;;;;23.65;46.15;100136.50;4260861;33;33546;-67
2023/05/20 05:47:05;;;;;;;5.05;3.17;;;;;;;23.65;46.20;100138.41;4260924;33;33974;-67
2023/05/20 05:49:33;;;;;;;9.13;3.60;;;;;;;23.66;46.33;100140.06;4260799;33;33571;-67
2023/05/20 05:52:02;;;;;;;4.95;3.25;;;;;;;23.66;46.38;100146.34;4259593;33;33876;-67
2023/05/20 05:54:30;;;;;;;6.70;3.90;;;;;;;23.66;46.32;100145.53;4257633;33;33751;-67
2023/05/20 05:56:57;;;;;;;7.80;4.07;;;;;;;23.65;46.22;100141.13;4259009;33;34217;-67
2023/05/20 05:59:25;;;;;;;7.37;4.35;;;;;;;23.65;46.09;100144.69;4258688;33;33393;-67
2023/05/20 06:01:53;;;;;;;6.45;3.75;;;;;;;23.66;46.18;100148.25;4259824;33;33948;-67
2023/05/20 06:04:21;;;;;;;6.30;3.67;;;;;;;23.65;46.28;100139.25;4260279;33;34431;-67
2023/05/20 06:06:50;;;;;;;5.78;4.03;;;;;;;23.66;46.55;100130.00;4265022;33;33945;-67
2023/05/20 06:09:17;;;;;;;6.18;3.40;;;;;;;23.67;46.63;100131.66;4262539;33;33712;-69
2023/05/20 06:11:45;;;;;;;14.30;4.85;;;;;;;23.67;46.33;100130.84;4246653;33;33981;-68
2023/05/20 06:14:13;;;;;;;8.18;4.53;;;;;;;23.67;46.36;100133.56;4254490;33;35514;-67
2023/05/20 06:16:40;;;;;;;8.40;4.37;;;;;;;23.67;46.16;100136.28;4257925;33;33545;-69
2023/05/20 06:19:08;;;;;;;9.95;4.60;;;;;;;23.67;46.16;100139.00;4246342;33;33261;-69
2023/05/20 06:21:36;;;;;;;6.53;4.47;;;;;;;23.65;46.20;100132.97;4246647;33;33896;-68
2023/05/20 06:24:04;;;;;;;11.40;4.45;;;;;;;23.64;46.03;100134.84;4245267;33;33822;-68
2023/05/20 06:26:32;;;;;;;7.53;4.50;;;;;;;23.63;45.97;100129.56;4246475;33;33769;-68
2023/05/20 06:29:01;;;;;;;9.00;5.30;;;;;;;23.64;45.90;100131.25;4246748;33;34234;-67
2023/05/20 06:31:29;;;;;;;8.30;4.45;;;;;;;23.63;46.18;100130.41;4246399;33;33862;-68
2023/05/20 06:33:57;;;;;;;6.25;4.12;;;;;;;23.64;46.12;100131.25;4246476;33;34231;-68
2023/05/20 06:36:26;;;;;;;9.40;4.68;;;;;;;23.64;46.00;100139.44;4246365;33;34406;-67
2023/05/20 06:38:53;;;;;;;13.27;4.62;;;;;;;23.64;45.98;100137.56;4246802;33;33396;-66
2023/05/20 06:41:21;;;;;;;11.75;4.15;;;;;;;23.64;46.34;100142.16;4246159;33;33798;-67
2023/05/20 06:43:50;;;;;;;9.43;4.95;;;;;;;23.65;46.41;100141.13;4246038;33;33896;-67
2023/05/20 06:46:28;;;;;;;8.02;4.30;;;;;;;23.65;46.43;100132.97;4252953;33;33926;-66
2023/05/20 06:48:56;;;;;;;9.00;4.82;;;;;;;23.65;46.45;100132.97;4246309;33;33399;-67
2023/05/20 06:51:23;;;;;;;7.65;4.95;;;;;;;23.66;46.34;100126.44;4246341;33;34086;-68
2023/05/20 06:53:51;;;;;;;8.98;5.45;;;;;;;23.64;46.20;100125.81;4246217;33;34112;-68
2023/05/20 06:56:20;;;;;;;9.95;5.65;;;;;;;23.64;45.97;100129.41;4246426;33;33991;-67
2023/05/20 06:58:48;;;;;;;9.90;5.60;;;;;;;23.64;45.80;100126.69;4246423;33;34256;-67
2023/05/20 07:01:16;;;;;;;10.90;6.10;;;;;;;23.65;45.37;100125.63;4246239;33;33993;-68
2023/05/20 07:03:45;;;;;;;11.15;6.10;;;;;;;23.66;45.28;100121.84;4246540;33;35102;-67
2023/05/20 07:06:12;;;;;;;10.00;5.87;;;;;;;23.65;45.25;100113.88;4246244;33;33666;-68
2023/05/20 07:08:40;;;;;;;10.75;6.12;;;;;;;23.65;45.25;100117.44;4246001;33;33300;-67
2023/05/20 07:11:08;;;;;;;9.32;5.57;;;;;;;23.65;45.27;100114.72;4246065;33;33946;-67
2023/05/20 07:13:36;;;;;;;10.77;6.12;;;;;;;23.65;45.42;100112.00;4250284;33;33921;-68
2023/05/20 07:16:05;;;;;;;8.90;6.20;;;;;;;23.65;45.46;100112.00;4260055;33;33627;-67
2023/05/20 07:18:34;;;;;;;8.48;5.40;;;;;;;23.67;45.35;100107.16;4260182;33;32926;-67
2023/05/20 07:21:01;;;;;;;8.80;6.05;;;;;;;23.68;45.37;100110.69;4260119;33;33683;-68
2023/05/20 07:23:30;;;;;;;11.60;5.90;;;;;;;23.67;45.51;100109.03;4260113;33;34050;-68
2023/05/20 07:25:57;;;;;;;7.85;5.70;;;;;;;23.68;45.55;100105.25;4260146;33;33730;-69
2023/05/20 07:28:25;;;;;;;7.87;5.30;;;;;;;23.68;45.55;100100.63;4260357;33;33499;-67
2023/05/20 07:30:55;;;;;;;9.90;6.37;;;;;;;23.69;45.55;100090.59;4259858;33;33679;-69
2023/05/20 07:33:23;;;;;;;9.43;5.97;;;;;;;23.71;45.53;100090.38;4259992;33;34017;-67
2023/05/20 07:35:53;;;;;;;8.57;5.97;;;;;;;23.72;45.51;100094.75;4259711;33;34179;-68
2023/05/20 07:38:21;;;;;;;9.43;6.30;;;;;;;23.74;45.44;100089.94;4259915;33;33908;-67
2023/05/20 07:40:50;;;;;;;8.43;6.05;;;;;;;23.75;45.46;100094.31;4260069;33;33945;-67
2023/05/20 07:43:20;;;;;;;11.82;5.85;;;;;;;23.77;45.50;100103.09;4260067;33;34400;-68
2023/05/20 07:45:48;;;;;;;14.75;6.32;;;;;;;23.75;45.54;100105.22;4259033;33;34587;-68
2023/05/20 07:48:15;;;;;;;9.68;6.32;;;;;;;23.74;45.55;100098.94;4259649;33;33391;-68
2023/05/20 07:50:43;;;;;;;10.18;6.28;;;;;;;23.76;45.62;100096.81;4258159;33;35341;-68
2023/05/20 07:53:11;;;;;;;9.45;5.60;;;;;;;23.76;45.69;100099.53;4258583;33;33987;-68
2023/05/20 07:55:39;;;;;;;9.75;6.05;;;;;;;23.77;45.72;100097.66;4258206;33;33364;-68
2023/05/20 07:58:06;;;;;;;10.65;5.45;;;;;;;23.77;45.76;100100.38;4258424;33;34124;-68
2023/05/20 08:00:34;;;;;;;8.10;5.78;;;;;;;23.77;45.78;100094.94;4258663;33;34454;-68
2023/05/20 08:03:02;;;;;;;9.70;5.80;;;;;;;23.77;45.76;100090.31;4259512;33;33998;-69
2023/05/20 08:05:31;;;;;;;6.87;5.37;;;;;;;23.77;45.73;100084.84;4259411;33;34232;-68
2023/05/20 08:07:58;;;;;;;12.27;6.80;;;;;;;23.79;45.73;100095.56;4260415;33;33402;-68
2023/05/20 08:10:27;;;;;;;10.85;6.78;;;;;;;23.79;45.71;100087.38;4260309;33;33986;-68
2023/05/20 08:12:55;;;;;;;13.40;6.95;;;;;;;23.79;45.69;100096.38;4260084;33;33893;-68
2023/05/20 08:15:23;;;;;;;8.82;5.90;;;;;;;23.80;45.69;100089.03;4247353;33;33858;-68
2023/05/20 08:17:50;;;;;;;8.98;6.40;;;;;;;23.80;45.68;100089.03;4260303;33;33124;-68
2023/05/20 08:20:19;;;;;;;10.15;6.22;;;;;;;23.80;45.66;100089.88;4259319;33;33570;-67
2023/05/20 08:22:46;;;;;;;12.48;6.95;;;;;;;23.80;45.66;100089.03;4259491;33;34827;-68
2023/05/20 08:25:14;;;;;;;9.90;6.87;;;;;;;23.80;45.64;100087.16;4259648;33;34924;-68
2023/05/20 08:27:43;;;;;;;10.10;5.95;;;;;;;23.80;45.64;100081.69;4247092;33;33654;-68
2023/05/20 08:30:12;;;;;;;8.88;6.50;;;;;;;23.82;45.57;100078.75;4260134;33;34669;-67
2023/05/20 08:32:40;;;;;;;8.43;6.13;;;;;;;23.81;45.58;100080.63;4260122;33;33569;-68
2023/05/20 08:35:08;;;;;;;8.15;6.28;;;;;;;23.83;45.53;100073.09;4259673;33;34058;-68
2023/05/20 08:37:36;;;;;;;10.00;6.45;;;;;;;23.82;45.54;100076.03;4260040;33;33829;-67
2023/05/20 08:40:04;;;;;;;9.05;6.60;;;;;;;23.82;45.53;100073.28;4259954;33;34041;-68
2023/05/20 08:42:31;;;;;;;9.57;6.97;;;;;;;23.82;45.51;100071.41;4259452;33;34876;-67
2023/05/20 08:44:59;;;;;;;10.27;7.00;;;;;;;23.83;45.50;100075.81;4260050;33;34674;-68
2023/05/20 08:47:27;;;;;;;8.50;6.57;;;;;;;23.82;45.50;100074.13;4235131;33;32275;-68
2023/05/20 08:49:55;;;;;;;8.95;6.28;;;;;;;23.84;45.49;100072.03;4246472;33;34142;-68
2023/05/20 08:52:22;;;;;;;8.70;5.85;;;;;;;23.84;45.49;100071.19;4246625;33;34692;-68
2023/05/20 08:54:50;;;;;;;8.70;6.07;;;;;;;23.83;45.49;100070.38;4246734;33;33655;-68
2023/05/20 08:57:19;;;;;;;9.70;7.00;;;;;;;23.85;45.48;100072.84;4259409;33;33108;-68
2023/05/20 08:59:46;;;;;;;9.43;7.10;;;;;;;23.85;45.48;100070.13;4235266;33;34727;-68
2023/05/20 09:02:14;;;;;;;9.32;6.80;;;;;;;23.85;45.45;100060.06;4259366;33;34893;-68
2023/05/20 09:04:42;;;;;;;9.00;6.80;;;;;;;23.84;45.46;100066.56;4259470;33;33463;-67
2023/05/20 09:07:09;;;;;;;8.63;6.40;;;;;;;23.86;45.46;100060.87;4259390;33;33275;-68
2023/05/20 09:09:37;;;;;;;8.95;6.45;;;;;;;23.86;45.45;100061.72;4259410;33;34956;-68
2023/05/20 09:12:05;;;;;;;8.25;6.82;;;;;;;23.86;45.42;100058.16;4259546;33;33624;-68
2023/05/20 09:14:32;;;;;;;9.48;7.32;;;;;;;23.86;45.42;100059.00;4259230;33;34142;-68
2023/05/20 09:17:00;;;;;;;9.25;7.00;;;;;;;23.86;45.41;100063.63;4259663;33;33667;-68
2023/05/20 09:19:28;;;;;;;10.70;7.43;;;;;;;23.86;45.41;100059.00;4260980;33;33900;-67
2023/05/20 09:21:55;;;;;;;8.50;6.60;;;;;;;23.86;45.39;100056.28;4261095;33;34660;-68
2023/05/20 09:24:24;;;;;;;8.73;6.68;;;;;;;23.88;45.39;100047.91;4260921;33;34091;-67
2023/05/20 09:26:52;;;;;;;9.15;6.78;;;;;;;23.87;45.39;100048.94;4261044;33;33294;-68
2023/05/20 09:29:20;;;;;;;10.35;7.53;;;;;;;23.88;45.39;100050.63;4261036;33;33878;-68
2023/05/20 09:31:48;;;;;;;9.73;7.18;;;;;;;23.87;45.40;100054.37;4260821;33;33657;-68
2023/05/20 09:34:16;;;;;;;9.25;7.10;;;;;;;23.87;45.40;100055.22;4261055;33;33964;-68
2023/05/20 09:36:44;;;;;;;8.65;6.90;;;;;;;23.89;45.42;100044.09;4260995;33;33099;-68
2023/05/20 09:39:14;;;;;;;10.00;7.80;;;;;;;23.88;45.40;100040.56;4260963;33;33976;-68
2023/05/20 09:41:56;;;;;;;11.73;7.50;;;;;;;23.88;45.42;100037.81;4248232;33;34465;-68
2023/05/20 09:44:24;;;;;;;9.95;7.78;;;;;;;23.90;45.42;100034.88;4248041;33;33950;-68
2023/05/20 09:46:52;;;;;;;10.00;7.53;;;;;;;23.89;45.43;100031.31;4248085;33;33375;-68
2023/05/20 09:49:20;;;;;;;10.13;7.72;;;;;;;23.89;45.44;100022.31;4248062;33;33805;-68
2023/05/20 09:51:48;;;;;;;9.48;7.40;;;;;;;23.90;45.45;100015.78;4248089;33;33710;-68
2023/05/20 09:54:19;;;;;;;9.38;7.40;;;;;;;23.89;45.49;100017.69;4248147;33;33783;-68
2023/05/20 09:56:47;;;;;;;10.15;7.37;;;;;;;23.90;45.52;100013.91;4236328;33;33145;-68
2023/05/20 09:59:17;;;;;;;11.75;7.40;;;;;;;23.91;45.52;100006.56;4260658;33;33906;-67
2023/05/20 10:01:45;;;;;;;8.68;6.93;;;;;;;23.91;45.54;100012.84;4260821;33;33913;-67
2023/05/20 10:04:13;;;;;;;9.98;6.93;;;;;;;23.92;45.55;100005.50;4260767;33;34021;-67
2023/05/20 10:07:10;;;;;;;9.45;7.05;;;;;;;23.91;45.55;100004.66;4247966;33;33678;-68
2023/05/20 10:09:56;;;;;;;9.65;7.12;;;;;;;23.93;45.57;100007.19;4236315;33;33601;-68
2023/05/20 10:12:33;;;;;;;9.63;7.87;;;;;;;23.94;45.54;100006.13;4260810;33;34799;-67
2023/05/20 10:15:20;;;;;;;12.52;7.30;;;;;;;23.95;45.55;100001.50;4247848;33;33832;-68
2023/05/20 10:18:04;;;;;;;10.45;7.37;;;;;;;23.94;45.54;100000.66;4248335;33;33158;-67
2023/05/20 10:20:31;;;;;;;9.18;7.87;;;;;;;23.91;45.58;99999.22;4248016;33;33912;-68
2023/05/20 10:22:59;;;;;;;9.40;7.28;;;;;;;23.92;45.55;99992.72;4247860;33;34512;-67
2023/05/20 10:25:27;;;;;;;10.77;7.00;;;;;;;23.93;45.55;99988.94;4260047;33;34560;-68
2023/05/20 10:28:07;;;;;;;9.85;7.43;;;;;;;23.94;45.53;99987.03;4260468;33;33210;-66
2023/05/20 10:30:34;;;;;;;11.07;7.68;;;;;;;23.96;45.52;99992.25;4247521;33;34001;-68
2023/05/20 10:33:04;;;;;;;10.75;7.47;;;;;;;23.95;45.49;99985.97;4260387;33;33941;-66
2023/05/20 10:35:32;;;;;;;10.55;7.45;;;;;;;23.95;45.51;99983.25;4247623;33;34544;-67
2023/05/20 10:38:11;;;;;;;10.35;7.70;;;;;;;23.96;45.49;99984.06;4260566;33;33462;-68
2023/05/20 10:40:40;;;;;;;9.73;7.60;;;;;;;23.97;45.52;99977.56;4247655;33;33760;-66
2023/05/20 10:43:11;;;;;;;8.35;6.80;;;;;;;23.96;45.53;99976.72;4260424;33;34033;-67
2023/05/20 10:45:51;;;;;;;11.45;7.97;;;;;;;23.96;45.57;99970.44;4260016;33;34044;-67
2023/05/20 10:48:26;;;;;;;;;;;;;;;23.98;45.63;99966.44;4260409;33;34135;-67
2023/05/20 10:50:55;;;;;;;12.07;7.20;;;;;;;24.06;45.50;99976.19;4247240;33;35084;-68
2023/05/20 10:53:24;;;;;;;10.70;7.97;;;;;;;24.01;45.69;99974.16;4260077;33;34155;-67
2023/05/20 10:56:00;;;;;;;9.68;7.32;;;;;;;23.98;45.84;99966.44;4259812;33;34153;-67
2023/05/20 10:58:35;;;;;;;10.27;7.87;;;;;;;23.98;45.90;99969.19;4247290;33;33519;-67
2023/05/20 11:01:03;;;;;;;11.48;8.07;;;;;;;24.00;45.97;99966.22;4247343;33;33618;-67
2023/05/20 11:03:31;;;;;;;9.43;7.30;;;;;;;24.00;45.99;99963.50;4260108;33;33724;-68
2023/05/20 11:05:58;;;;;;;8.90;7.03;;;;;;;24.02;46.01;99967.66;4236264;33;33941;-68
2023/05/20 11:08:32;;;;;;;14.82;7.60;;;;;;;24.02;46.08;99959.50;4260654;33;33169;-67
2023/05/20 11:11:00;;;;;;;9.63;7.55;;;;;;;24.01;46.12;99957.81;4260364;33;34384;-68
2023/05/20 11:13:27;;;;;;;11.25;8.02;;;;;;;24.02;46.12;99955.94;4260370;33;34761;-68
2023/05/20 11:15:55;;;;;;;9.30;6.90;;;;;;;24.02;46.16;99954.03;4260398;33;33969;-68
2023/05/20 11:18:23;;;;;;;10.98;7.72;;;;;;;24.04;46.17;99956.53;4247567;33;32965;-68
2023/05/20 11:20:52;;;;;;;11.65;7.18;;;;;;;24.04;46.17;99956.53;4260217;33;34019;-68
2023/05/20 11:23:22;;;;;;;9.63;6.93;;;;;;;24.04;46.21;99957.34;4260238;33;33734;-69
2023/05/20 11:25:51;;;;;;;8.55;7.25;;;;;;;24.06;46.20;99946.22;4260334;33;33454;-68
2023/05/20 11:28:20;;;;;;;9.40;7.07;;;;;;;24.05;46.22;99942.66;4247771;33;33504;-68
2023/05/20 11:30:47;;;;;;;9.50;7.25;;;;;;;24.06;46.21;99935.31;4260145;33;34445;-68